createdAt,value
2023-02-14T00:02:26.951Z,100986.81
2023-02-14T00:05:28.652Z,100987.25
2023-02-14T00:08:30.229Z,100981.31
2023-02-14T00:11:32.116Z,100975.19
2023-02-14T00:14:52.675Z,100962.31
2023-02-14T00:17:56.795Z,100964.00
2023-02-14T00:21:00.412Z,100966.66
2023-02-14T00:24:06.454Z,100957.50
2023-02-14T00:27:08.231Z,100952.97
2023-02-14T00:30:11.619Z,100956.66
2023-02-14T00:33:13.289Z,100949.75
2023-02-14T00:36:15.480Z,100959.09
2023-02-14T00:39:18.646Z,100957.94
2023-02-14T00:42:20.399Z,100954.25
2023-02-14T00:45:22.022Z,100943.44
2023-02-14T00:48:23.742Z,100944.88
2023-02-14T00:51:25.842Z,100948.34
2023-02-14T00:54:27.481Z,100950.19
2023-02-14T00:57:29.180Z,100944.25
2023-02-14T01:00:32.169Z,100943.03
2023-02-14T01:03:34.076Z,100932.44
2023-02-14T01:06:37.702Z,100947.50
2023-02-14T01:09:39.396Z,100946.28
2023-02-14T01:12:40.984Z,100948.34
2023-02-14T01:15:45.888Z,100943.63
2023-02-14T01:18:48.638Z,100949.16
2023-02-14T01:21:51.086Z,100947.91
2023-02-14T01:24:52.770Z,100952.81
2023-02-14T01:27:54.649Z,100958.34
2023-02-14T01:30:56.338Z,100954.88
2023-02-14T01:33:59.669Z,100955.47
2023-02-14T01:37:11.916Z,100955.28
2023-02-14T01:40:14.788Z,100941.00
2023-02-14T01:43:18.023Z,100951.81
2023-02-14T01:46:20.284Z,100952.03
2023-02-14T01:49:26.144Z,100951.81
2023-02-14T01:52:39.694Z,100951.41
2023-02-14T01:55:46.650Z,100947.13
2023-02-14T01:58:53.263Z,100939.19
2023-02-14T02:01:55.678Z,100951.41
2023-02-14T02:04:58.499Z,100946.09
2023-02-14T02:08:01.925Z,100945.50
2023-02-14T02:11:03.637Z,100932.03
2023-02-14T02:14:05.387Z,100937.34
2023-02-14T02:17:26.463Z,100929.78
2023-02-14T02:21:02.120Z,100935.09
2023-02-14T02:24:45.380Z,100930.41
2023-02-14T02:27:46.986Z,100923.66
2023-02-14T02:31:07.419Z,100927.53
2023-02-14T02:34:55.178Z,100924.28
2023-02-14T02:38:22.107Z,100919.59
2023-02-14T02:41:36.602Z,100924.06
2023-02-14T02:44:51.350Z,100921.25
2023-02-14T02:48:17.797Z,100919.78
2023-02-14T02:51:57.981Z,100921.25
2023-02-14T02:55:06.595Z,100915.94
2023-02-14T02:58:08.592Z,100924.28
2023-02-14T03:01:15.317Z,100934.69
2023-02-14T03:04:37.254Z,100931.44
2023-02-14T03:07:40.459Z,100931.84
2023-02-14T03:10:42.943Z,100919.59
2023-02-14T03:13:53.944Z,100933.88
2023-02-14T03:17:07.170Z,100935.91
2023-02-14T03:20:20.712Z,100938.97
2023-02-14T03:23:36.070Z,100931.44
2023-02-14T03:26:51.631Z,100937.75
2023-02-14T03:30:02.320Z,100941.00
2023-02-14T03:33:14.119Z,100931.03
2023-02-14T03:36:25.397Z,100922.47
2023-02-14T03:39:52.855Z,100929.78
2023-02-14T03:43:04.326Z,100926.53
2023-02-14T03:46:48.551Z,100918.78
2023-02-14T03:50:07.307Z,100913.88
2023-02-14T03:53:11.125Z,100915.72
2023-02-14T03:56:30.208Z,100924.28
2023-02-14T03:59:31.919Z,100923.28
2023-02-14T04:02:39.476Z,100931.03
2023-02-14T04:05:43.857Z,100931.03
2023-02-14T04:08:46.204Z,100931.03
2023-02-14T04:11:50.414Z,100934.28
2023-02-14T04:14:52.151Z,100942.22
2023-02-14T04:18:25.897Z,100934.88
2023-02-14T04:21:27.626Z,100927.94
2023-02-14T04:24:29.213Z,100938.16
2023-02-14T04:27:31.050Z,100929.00
2023-02-14T04:30:32.676Z,100920.44
2023-02-14T04:33:34.400Z,100927.75
2023-02-14T04:36:36.016Z,100912.47
2023-02-14T04:39:37.843Z,100935.09
2023-02-14T04:42:39.441Z,100922.88
2023-02-14T04:45:41.036Z,100926.13
2023-02-14T04:48:42.624Z,100928.59
2023-02-14T04:51:44.555Z,100934.91
2023-02-14T04:54:46.129Z,100931.03
2023-02-14T04:57:47.721Z,100946.09
2023-02-14T05:00:49.376Z,100938.75
2023-02-14T05:03:51.126Z,100931.63
2023-02-14T05:06:52.746Z,100922.03
2023-02-14T05:09:54.343Z,100937.91
2023-02-14T05:12:55.986Z,100926.09
2023-02-14T05:15:59.101Z,100935.88
2023-02-14T05:19:00.804Z,100938.34
2023-02-14T05:22:02.531Z,100934.47
2023-02-14T05:25:04.414Z,100931.63
2023-02-14T05:28:06.703Z,100928.97
2023-02-14T05:31:09.604Z,100926.53
2023-02-14T05:34:11.554Z,100935.06
2023-02-14T05:37:13.275Z,100943.22
2023-02-14T05:40:16.289Z,100921.41
2023-02-14T05:43:18.072Z,100937.72
2023-02-14T05:46:19.785Z,100933.66
2023-02-14T05:49:21.505Z,100938.53
2023-02-14T05:52:23.572Z,100935.06
2023-02-14T05:55:26.226Z,100943.59
2023-02-14T05:58:28.069Z,100936.91
2023-02-14T06:01:29.635Z,100932.19
2023-02-14T06:04:31.321Z,100933.66
2023-02-14T06:07:33.003Z,100939.75
2023-02-14T06:10:34.662Z,100938.13
2023-02-14T06:13:36.249Z,100946.47
2023-02-14T06:16:37.888Z,100945.88
2023-02-14T06:19:39.658Z,100932.78
2023-02-14T06:22:41.251Z,100958.69
2023-02-14T06:25:42.935Z,100946.84
2023-02-14T06:28:44.529Z,100954.59
2023-02-14T06:31:46.353Z,100952.16
2023-02-14T06:34:48.456Z,100961.53
2023-02-14T06:37:50.533Z,100956.44
2023-02-14T06:40:52.150Z,100962.38
2023-02-14T06:43:54.160Z,100965.84
2023-02-14T06:46:55.778Z,100968.28
2023-02-14T06:49:59.890Z,100968.09
2023-02-14T06:53:01.598Z,100968.31
2023-02-14T06:56:04.120Z,100959.53
2023-02-14T06:59:06.356Z,100963.81
2023-02-14T07:02:11.124Z,100960.75
2023-02-14T07:05:12.767Z,100962.38
2023-02-14T07:08:14.365Z,100965.25
2023-02-14T07:11:16.035Z,100979.53
2023-02-14T07:14:18.024Z,100986.03
2023-02-14T07:17:19.656Z,100992.97
2023-02-14T07:20:21.905Z,100979.09
2023-02-14T07:23:23.556Z,100980.91
2023-02-14T07:26:25.216Z,100973.00
2023-02-14T07:29:26.809Z,100989.31
2023-02-14T07:32:28.445Z,100989.34
2023-02-14T07:35:30.094Z,100989.72
2023-02-14T07:38:31.763Z,100986.44
2023-02-14T07:41:33.542Z,100987.28
2023-02-14T07:44:35.232Z,100969.94
2023-02-14T07:47:36.883Z,100984.84
2023-02-14T07:50:38.446Z,100974.06
2023-02-14T07:53:41.128Z,100980.38
2023-02-14T07:56:42.913Z,100981.59
2023-02-14T07:59:44.466Z,100972.63
2023-02-14T08:02:46.282Z,100972.19
2023-02-14T08:05:57.286Z,100973.22
2023-02-14T08:08:59.126Z,100967.50
2023-02-14T08:12:19.372Z,100972.63
2023-02-14T08:15:39.246Z,100959.53
2023-02-14T08:18:41.996Z,100971.19
2023-02-14T08:21:43.604Z,100967.09
2023-02-14T08:24:45.211Z,100970.56
2023-02-14T08:27:46.808Z,100969.34
2023-02-14T08:30:48.616Z,100959.53
2023-02-14T08:33:50.223Z,100968.91
2023-02-14T08:36:52.118Z,100969.50
2023-02-14T08:39:53.872Z,100964.56
2023-02-14T08:42:55.551Z,100958.28
2023-02-14T08:45:57.334Z,100959.75
2023-02-14T08:48:59.036Z,100965.41
2023-02-14T08:52:00.701Z,100972.56
2023-02-14T08:55:02.930Z,100977.44
2023-02-14T08:58:05.698Z,100972.13
2023-02-14T09:01:17.788Z,100978.63
2023-02-14T09:04:19.457Z,100978.03
2023-02-14T09:07:21.884Z,100984.94
2023-02-14T09:10:24.653Z,100983.09
2023-02-14T09:13:26.274Z,100968.75
2023-02-14T09:16:28.033Z,100954.84
2023-02-14T09:19:29.648Z,100968.78
2023-02-14T09:22:31.664Z,100972.28
2023-02-14T09:25:33.377Z,100958.44
2023-02-14T09:28:35.578Z,100966.59
2023-02-14T09:31:37.273Z,100969.19
2023-02-14T09:34:38.996Z,100964.38
2023-02-14T09:37:40.763Z,100966.47
2023-02-14T09:40:48.753Z,100960.13
2023-02-14T09:44:07.605Z,100959.38
2023-02-14T09:47:15.118Z,100949.44
2023-02-14T09:50:28.209Z,100947.44
2023-02-14T09:53:33.886Z,100953.88
2023-02-14T09:56:57.609Z,100951.16
2023-02-14T10:00:05.416Z,100936.91
2023-02-14T10:03:26.850Z,100934.91
2023-02-14T10:06:48.374Z,100948.75
2023-02-14T10:10:02.263Z,100945.84
2023-02-14T10:13:34.200Z,100943.94
2023-02-14T10:16:46.216Z,100926.94
2023-02-14T10:19:56.049Z,100936.59
2023-02-14T10:23:04.442Z,100936.13
2023-02-14T10:26:21.317Z,100931.69
2023-02-14T10:29:23.259Z,100933.59
2023-02-14T10:32:40.065Z,100931.63
2023-02-14T10:35:52.447Z,100930.56
2023-02-14T10:39:12.527Z,100933.09
2023-02-14T10:42:38.466Z,100922.16
2023-02-14T10:45:56.721Z,100923.41
2023-02-14T10:49:16.303Z,100926.03
2023-02-14T10:52:47.953Z,100910.78
2023-02-14T10:56:07.006Z,100915.16
2023-02-14T10:59:21.917Z,100918.75
2023-02-14T11:02:30.384Z,100910.13
2023-02-14T11:05:39.120Z,100898.22
2023-02-14T11:08:41.573Z,100895.69
2023-02-14T11:11:58.773Z,100898.44
2023-02-14T11:15:19.379Z,100901.16
2023-02-14T11:18:24.419Z,100893.25
2023-02-14T11:21:37.720Z,100876.44
2023-02-14T11:24:42.274Z,100882.66
2023-02-14T11:27:49.972Z,100871.50
2023-02-14T11:30:52.357Z,100877.44
2023-02-14T11:33:54.464Z,100863.31
2023-02-14T11:36:56.171Z,100869.59
2023-02-14T11:40:00.332Z,100870.34
2023-02-14T11:43:29.627Z,100855.53
2023-02-14T11:46:38.605Z,100856.41
2023-02-14T11:50:01.264Z,100849.47
2023-02-14T11:53:03.619Z,100853.69
2023-02-14T11:56:05.901Z,100854.63
2023-02-14T11:59:07.694Z,100857.34
2023-02-14T12:02:22.981Z,100860.63
2023-02-14T12:05:31.364Z,100855.06
2023-02-14T12:08:33.064Z,100848.44
2023-02-14T12:11:34.651Z,100832.59
2023-02-14T12:14:36.487Z,100838.06
2023-02-14T12:17:40.054Z,100834.53
2023-02-14T12:21:12.686Z,100828.41
2023-02-14T12:24:27.968Z,100832.59
2023-02-14T12:27:52.336Z,100824.28
2023-02-14T12:30:54.307Z,100810.00
2023-02-14T12:33:56.448Z,100814.34
2023-02-14T12:37:22.638Z,100807.72
2023-02-14T12:40:27.051Z,100795.25
2023-02-14T12:43:53.282Z,100784.81
2023-02-14T12:47:10.301Z,100779.56
2023-02-14T12:50:37.129Z,100784.22
2023-02-14T12:54:13.128Z,100782.63
2023-02-14T12:57:41.188Z,100775.06
2023-02-14T13:01:04.521Z,100772.50
2023-02-14T13:04:37.274Z,100776.59
2023-02-14T13:08:01.310Z,100774.00
2023-02-14T13:11:29.198Z,100774.59
2023-02-14T13:15:00.912Z,100772.50
2023-02-14T13:18:18.191Z,100765.91
2023-02-14T13:21:26.521Z,100757.56
2023-02-14T13:24:38.260Z,100753.38
2023-02-14T13:27:40.790Z,100750.38
2023-02-14T13:30:43.212Z,100753.97
2023-02-14T13:33:52.464Z,100745.97
2023-02-14T13:36:57.176Z,100727.53
2023-02-14T13:40:03.275Z,100744.34
2023-02-14T13:43:04.987Z,100727.31
2023-02-14T13:46:06.812Z,100731.34
2023-02-14T13:49:23.834Z,100727.25
2023-02-14T13:52:38.679Z,100735.63
2023-02-14T13:55:44.512Z,100736.06
2023-02-14T13:59:04.525Z,100716.84
2023-02-14T14:02:30.111Z,100722.53
2023-02-14T14:05:32.913Z,100712.41
2023-02-14T14:08:42.404Z,100712.44
2023-02-14T14:11:44.398Z,100714.88
2023-02-14T14:15:06.130Z,100713.25
2023-02-14T14:18:13.881Z,100719.75
2023-02-14T14:21:27.357Z,100715.94
2023-02-14T14:24:34.899Z,100722.91
2023-02-14T14:27:44.099Z,100708.25
2023-02-14T14:30:46.661Z,100703.44
2023-02-14T14:33:58.733Z,100703.31
2023-02-14T14:37:15.572Z,100704.34
2023-02-14T14:40:31.559Z,100707.03
2023-02-14T14:43:36.473Z,100704.25
2023-02-14T14:46:38.149Z,100693.00
2023-02-14T14:49:39.715Z,100706.00
2023-02-14T14:52:46.516Z,100705.75
2023-02-14T14:55:51.996Z,100698.31
2023-02-14T14:58:54.812Z,100698.00
2023-02-14T15:01:56.846Z,100691.28
2023-02-14T15:05:13.402Z,100689.41
2023-02-14T15:08:33.110Z,100691.06
2023-02-14T15:11:53.701Z,100680.16
2023-02-14T15:14:56.883Z,100690.59
2023-02-14T15:17:58.571Z,100685.50
2023-02-14T15:21:01.295Z,100683.63
2023-02-14T15:24:03.780Z,100682.78
2023-02-14T15:27:14.592Z,100683.06
2023-02-14T15:30:19.253Z,100693.13
2023-02-14T15:33:21.154Z,100694.25
2023-02-14T15:36:27.658Z,100688.47
2023-02-14T15:39:43.108Z,100679.31
2023-02-14T15:42:45.612Z,100677.00
2023-02-14T15:45:51.083Z,100668.22
2023-02-14T15:48:54.787Z,100671.13
2023-02-14T15:51:56.884Z,100667.75
2023-02-14T15:54:58.533Z,100665.09
2023-02-14T15:58:04.728Z,100678.72
2023-02-14T16:01:08.022Z,100675.28
2023-02-14T16:04:10.873Z,100682.31
2023-02-14T16:07:27.734Z,100677.22
2023-02-14T16:10:38.023Z,100673.06
2023-02-14T16:13:42.099Z,100680.59
2023-02-14T16:17:00.387Z,100671.63
2023-02-14T16:20:43.446Z,100677.56
2023-02-14T16:24:11.508Z,100671.53
2023-02-14T16:27:13.293Z,100668.84
2023-02-14T16:30:17.309Z,100686.31
2023-02-14T16:33:22.658Z,100681.66
2023-02-14T16:36:27.746Z,100680.16
2023-02-14T16:39:29.455Z,100668.81
2023-02-14T16:42:32.729Z,100677.63
2023-02-14T16:45:34.292Z,100670.53
2023-02-14T16:48:36.773Z,100684.75
2023-02-14T16:51:42.907Z,100697.16
2023-02-14T16:54:44.502Z,100687.53
2023-02-14T16:57:50.616Z,100686.16
2023-02-14T17:00:52.173Z,100679.34
2023-02-14T17:03:53.752Z,100685.09
2023-02-14T17:06:57.459Z,100691.19
2023-02-14T17:10:07.700Z,100692.31
2023-02-14T17:13:11.055Z,100691.59
2023-02-14T17:16:15.647Z,100694.63
2023-02-14T17:19:17.834Z,100691.25
2023-02-14T17:22:19.889Z,100691.25
2023-02-14T17:25:21.571Z,100695.69
2023-02-14T17:28:25.482Z,100693.63
2023-02-14T17:31:28.577Z,100688.66
2023-02-14T17:34:33.960Z,100682.97
2023-02-14T17:37:36.738Z,100680.84
2023-02-14T17:40:38.325Z,100692.56
2023-02-14T17:43:40.120Z,100681.00
2023-02-14T17:46:41.775Z,100686.75
2023-02-14T17:49:47.155Z,100691.84
2023-02-14T17:52:52.663Z,100688.03
2023-02-14T17:55:54.252Z,100680.94
2023-02-14T17:58:56.222Z,100685.44
2023-02-14T18:01:58.709Z,100674.69
2023-02-14T18:05:00.417Z,100686.00
2023-02-14T18:08:02.898Z,100676.69
2023-02-14T18:11:09.337Z,100682.88
2023-02-14T18:14:10.981Z,100688.44
2023-02-14T18:17:13.641Z,100681.50
2023-02-14T18:20:15.179Z,100684.47
2023-02-14T18:23:17.518Z,100689.91
2023-02-14T18:26:19.582Z,100675.81
2023-02-14T18:29:21.201Z,100685.53
2023-02-14T18:32:22.770Z,100693.69
2023-02-14T18:35:24.384Z,100690.13
2023-02-14T18:38:25.976Z,100673.91
2023-02-14T18:41:28.399Z,100690.56
2023-02-14T18:44:30.132Z,100673.56
2023-02-14T18:47:31.721Z,100679.81
2023-02-14T18:50:34.089Z,100684.41
2023-02-14T18:53:40.013Z,100671.25
2023-02-14T18:56:41.619Z,100679.75
2023-02-14T18:59:43.186Z,100681.19
2023-02-14T19:02:44.962Z,100677.66
2023-02-14T19:05:46.510Z,100668.75
2023-02-14T19:08:48.602Z,100652.50
2023-02-14T19:11:50.173Z,100652.19
2023-02-14T19:14:55.657Z,100646.63
2023-02-14T19:17:57.206Z,100660.09
2023-02-14T19:21:08.778Z,100646.84
2023-02-14T19:24:10.554Z,100649.47
2023-02-14T19:27:14.741Z,100643.53
2023-02-14T19:30:16.557Z,100636.84
2023-02-14T19:33:19.810Z,100629.59
2023-02-14T19:36:23.584Z,100632.69
2023-02-14T19:39:29.361Z,100631.25
2023-02-14T19:42:31.009Z,100615.66
2023-02-14T19:45:32.692Z,100629.47
2023-02-14T19:48:34.430Z,100622.72
2023-02-14T19:51:36.313Z,100620.69
2023-02-14T19:54:38.859Z,100611.59
2023-02-14T19:57:41.141Z,100617.78
2023-02-14T20:00:42.855Z,100618.16
2023-02-14T20:03:44.469Z,100609.97
2023-02-14T20:06:46.913Z,100620.16
2023-02-14T20:09:50.195Z,100617.63
2023-02-14T20:12:51.994Z,100607.69
2023-02-14T20:15:53.554Z,100608.28
2023-02-14T20:18:55.325Z,100614.03
2023-02-14T20:21:56.983Z,100610.72
2023-02-14T20:24:58.679Z,100617.34
2023-02-14T20:28:00.289Z,100603.47
2023-02-14T20:31:07.346Z,100612.72
2023-02-14T20:34:09.580Z,100604.97
2023-02-14T20:37:11.524Z,100603.75
2023-02-14T20:40:13.889Z,100584.72
2023-02-14T20:43:16.542Z,100588.34
2023-02-14T20:46:18.371Z,100587.69
2023-02-14T20:49:21.711Z,100588.56
2023-02-14T20:52:23.358Z,100593.25
2023-02-14T20:55:27.095Z,100573.84
2023-02-14T20:58:31.296Z,100582.19
2023-02-14T21:01:33.034Z,100573.38
2023-02-14T21:04:35.160Z,100571.06
2023-02-14T21:07:36.794Z,100560.84
2023-02-14T21:10:38.342Z,100565.50
2023-02-14T21:13:40.339Z,100559.19
2023-02-14T21:16:41.941Z,100562.06
2023-02-14T21:19:46.532Z,100565.22
2023-02-14T21:22:48.302Z,100561.41
2023-02-14T21:25:49.924Z,100568.31
2023-02-14T21:28:51.979Z,100553.34
2023-02-14T21:31:53.602Z,100571.78
2023-02-14T21:34:55.668Z,100576.66
2023-02-14T21:37:57.344Z,100567.28
2023-02-14T21:41:09.050Z,100573.41
2023-02-14T21:44:30.577Z,100574.22
2023-02-14T21:47:36.625Z,100573.69
2023-02-14T21:50:38.210Z,100570.84
2023-02-14T21:53:39.799Z,100578.94
2023-02-14T21:56:42.036Z,100561.50
2023-02-14T21:59:43.637Z,100582.03
2023-02-14T22:02:45.320Z,100573.28
2023-02-14T22:05:46.919Z,100570.75
2023-02-14T22:08:56.536Z,100576.94
2023-02-14T22:11:58.183Z,100560.91
2023-02-14T22:15:01.354Z,100565.31
2023-02-14T22:18:02.913Z,100567.00
2023-02-14T22:21:16.476Z,100557.22
2023-02-14T22:24:18.109Z,100560.97
2023-02-14T22:27:19.722Z,100558.88
2023-02-14T22:30:21.364Z,100549.59
2023-02-14T22:33:24.345Z,100549.16
2023-02-14T22:36:25.928Z,100543.31
2023-02-14T22:39:27.610Z,100537.00
2023-02-14T22:42:29.315Z,100545.91
2023-02-14T22:45:30.875Z,100549.25
2023-02-14T22:48:34.647Z,100546.66
2023-02-14T22:51:41.193Z,100544.59
2023-02-14T22:54:42.779Z,100534.84
2023-02-14T22:57:44.545Z,100536.88
2023-02-14T23:00:46.105Z,100519.28
2023-02-14T23:03:48.506Z,100526.03
2023-02-14T23:06:51.906Z,100530.59
2023-02-14T23:09:53.461Z,100530.72
2023-02-14T23:13:13.803Z,100527.03
2023-02-14T23:16:34.275Z,100521.13
2023-02-14T23:19:55.629Z,100520.47
2023-02-14T23:22:57.247Z,100533.47
2023-02-14T23:26:00.300Z,100534.34
2023-02-14T23:29:02.241Z,100526.41
2023-02-14T23:32:06.352Z,100521.72
2023-02-14T23:35:08.296Z,100529.56
2023-02-14T23:38:09.958Z,100529.91
2023-02-14T23:41:30.268Z,100520.19
2023-02-14T23:44:33.309Z,100530.22
2023-02-14T23:47:34.892Z,100536.59
2023-02-14T23:50:36.511Z,100525.84
2023-02-14T23:53:38.079Z,100532.56
2023-02-14T23:56:40.244Z,100526.59
2023-02-14T23:59:41.780Z,100519.94
